Imagine... — ZGAM9 — position and weather

sailwx.info

Track history (hours):
 
Tides and Currents Weather Stations Pressure Air Temp Water Temp Dewpoint Dewpoint Depression Visibility Wind Speed Wind Dir Waves Ship Positions

Imagine...

Last reported at 2018-May-28 18:39 UTC. Time now 2018-Jun-22 17:10 UTC.
Position N 41°10' W 072°17'.
Warning: this ship's position is 24 days out of date.

Length 50 m; draft 2.6 m.

Type: Pleasure craft. MMSI: 319018500.

Date/timePositionNaut miles runAvg speedWind from/ knotsBaromVisibWave heightAir tempDewpointWater temp
2018-May-28 18:39N 41°10' W 072°17'216.8
2018-May-28 18:30N 41°10' W 072°20'816.0
2018-May-28 18:00N 41°08' W 072°31'815.3
2018-May-28 17:30N 41°06' W 072°40'6112.8
2018-May-28 12:41N 40°46' W 073°57'314.9
2018-May-28 12:30N 40°43' W 073°58'2 0.1
2018-May-27 19:33N 40°45' W 074°01'0 2.0
2018-May-27 19:30N 40°45' W 074°01'2 3.0
2018-May-27 18:48N 40°47' W 073°60'1 4.6
2018-May-27 18:30N 40°46' W 074°01'2 4.7
2018-May-27 18:00N 40°43' W 074°01'2 4.7
2018-May-27 17:30N 40°41' W 074°02'4 7.0
2018-May-27 17:00N 40°45' W 074°01'0 0.0
2018-May-27 07:38N 40°45' W 074°01'0 0.0
2018-May-27 04:47N 40°45' W 074°01'0 0.0
2018-May-27 04:29N 40°45' W 074°01'0 0.0
2018-May-27 04:00N 40°45' W 074°01'0 0.0
2018-May-27 03:22N 40°45' W 074°01'0 0.0
2018-May-27 03:00N 40°45' W 074°01'0 0.0
2018-May-27 02:30N 40°45' W 074°01'0 0.0
2018-May-27 00:42N 40°45' W 074°01'0 0.0
2018-May-26 19:43N 40°45' W 074°01'0 0.0
2018-May-26 19:25N 40°45' W 074°01'0 0.0
2018-May-26 18:01N 40°45' W 074°01'0 0.0
2018-May-26 17:49N 40°45' W 074°01'0 0.0
2018-May-26 17:23N 40°45' W 074°01'0 0.0
2018-May-26 16:58N 40°45' W 074°01'0 0.0
2018-May-26 16:26N 40°45' W 074°01'0 0.0
2018-May-26 15:59N 40°45' W 074°01'0 0.0
2018-May-26 15:30N 40°45' W 074°01'0 0.0
2018-May-26 15:00N 40°45' W 074°01'0 0.0
2018-May-26 14:27N 40°45' W 074°01'0 0.0
2018-May-26 13:59N 40°45' W 074°01'0 0.0
2018-May-26 10:30N 40°45' W 074°01'0 0.0
2018-May-26 09:31N 40°45' W 074°01'0 0.0
2018-May-26 09:12N 40°45' W 074°01'0 0.0
2018-May-26 08:55N 40°45' W 074°01'0 0.0
2018-May-26 08:18N 40°45' W 074°01'0 0.0
2018-May-26 07:59N 40°45' W 074°01'0 0.0
2018-May-26 07:30N 40°45' W 074°01'0 0.0
2018-May-26 07:00N 40°45' W 074°01'0 0.0
2018-May-26 06:21N 40°45' W 074°01'0 0.0
2018-May-26 02:18N 40°45' W 074°01'0 0.0
2018-May-26 01:58N 40°45' W 074°01'0 0.0
2018-May-26 01:29N 40°45' W 074°01'0 0.0
2018-May-26 00:59N 40°45' W 074°01'0 0.0
2018-May-26 00:27N 40°45' W 074°01'0 0.0
2018-May-25 21:33N 40°45' W 074°01'0 0.1
2018-May-25 21:29N 40°45' W 074°01'0 0.0
2018-May-25 20:29N 40°45' W 074°01'0 0.0
2018-May-25 19:22N 40°45' W 074°01'0 0.0
2018-May-25 18:57N 40°45' W 074°01'0 0.0
2018-May-25 18:05N 40°45' W 074°01'0 0.0
2018-May-25 17:56N 40°45' W 074°01'0 0.0
2018-May-25 17:27N 40°45' W 074°01'0 0.0
2018-May-25 16:58N 40°45' W 074°01'0 0.0
2018-May-25 16:26N 40°45' W 074°01'0 0.0
2018-May-25 16:00N 40°45' W 074°01'0 0.0
2018-May-25 15:23N 40°45' W 074°01'0 0.0
2018-May-25 14:58N 40°45' W 074°01'0 0.0
2018-May-25 14:29N 40°45' W 074°01'0 0.0
2018-May-25 12:08N 40°45' W 074°01'0 0.0
2018-May-25 11:56N 40°45' W 074°01'0 0.0
2018-May-25 11:30N 40°45' W 074°01'0 0.0
2018-May-25 11:00N 40°45' W 074°01'0 0.0
2018-May-25 10:24N 40°45' W 074°01'0 0.0
2018-May-25 09:53N 40°45' W 074°01'0 0.0
2018-May-25 04:40N 40°45' W 074°01'0 0.0
2018-May-25 04:21N 40°45' W 074°01'0 0.0
2018-May-25 03:47N 40°45' W 074°01'0 0.0
2018-May-25 00:58N 40°45' W 074°01'0 0.0
2018-May-24 20:39N 40°45' W 074°01'0 0.0
2018-May-24 20:24N 40°45' W 074°01'0 0.0
2018-May-24 19:57N 40°45' W 074°01'0 0.0
2018-May-24 19:29N 40°45' W 074°01'0 0.0
2018-May-24 17:33N 40°45' W 074°01'0 0.0
2018-May-24 15:44N 40°45' W 074°01'0 0.0
2018-May-24 15:29N 40°45' W 074°01'0 0.0
2018-May-24 14:53N 40°45' W 074°01'0 0.0
2018-May-24 14:28N 40°45' W 074°01'0 0.0
2018-May-24 14:00N 40°45' W 074°01'0 0.0
2018-May-24 05:57N 40°45' W 074°01'0 0.0
2018-May-24 05:25N 40°45' W 074°01'0 0.0
2018-May-24 04:46N 40°45' W 074°01'0 0.0
2018-May-23 23:46N 40°45' W 074°01'0 0.0
2018-May-23 23:18N 40°45' W 074°01'0 0.0
2018-May-23 19:26N 40°45' W 074°01'0 0.0
2018-May-23 19:00N 40°45' W 074°01'0 0.0
2018-May-23 18:12N 40°45' W 074°01'0 0.0
2018-May-23 17:59N 40°45' W 074°01'0 0.0
2018-May-23 17:12N 40°45' W 074°01'0 0.0
2018-May-23 16:59N 40°45' W 074°01'0 0.0
2018-May-23 16:25N 40°45' W 074°01'0 0.0
2018-May-23 15:59N 40°45' W 074°01'0 0.0
2018-May-23 15:30N 40°45' W 074°01'0 0.0
2018-May-23 14:47N 40°45' W 074°01'0 0.0
2018-May-23 14:14N 40°45' W 074°01'0 0.0
2018-May-23 14:00N 40°45' W 074°01'0 0.0
2018-May-23 13:30N 40°45' W 074°01'0 0.0
2018-May-23 13:00N 40°45' W 074°01'0 0.0
2018-May-23 12:28N 40°45' W 074°01'0 0.0
2018-May-23 11:49N 40°45' W 074°01'0 0.0
2018-May-23 11:30N 40°45' W 074°01'0 0.0
2018-May-23 10:59N 40°45' W 074°01'0 0.0
2018-May-23 10:30N 40°45' W 074°01'0 0.0
2018-May-23 10:00N 40°45' W 074°01'0 0.0
2018-May-23 08:45N 40°45' W 074°01'0 0.0
2018-May-23 04:16N 40°45' W 074°01'0 0.0
2018-May-23 00:44N 40°45' W 074°01'0 0.0
2018-May-23 00:18N 40°45' W 074°01'0 0.0
2018-May-22 23:58N 40°45' W 074°01'0 0.0
2018-May-22 23:28N 40°45' W 074°01'0 0.0
2018-May-22 23:00N 40°45' W 074°01'0 0.0
2018-May-22 22:29N 40°45' W 074°01'0 0.0
2018-May-22 22:00N 40°45' W 074°01'0 0.0
2018-May-22 21:05N 40°45' W 074°01'0 0.0
2018-May-22 20:53N 40°45' W 074°01'0 0.0
2018-May-22 20:28N 40°45' W 074°01'0 0.0
2018-May-22 19:51N 40°45' W 074°01'0 0.0
2018-May-22 19:21N 40°45' W 074°01'0 0.0
2018-May-22 18:56N 40°45' W 074°01'0 0.0
2018-May-22 17:59N 40°45' W 074°01'0 0.0
2018-May-22 17:30N 40°45' W 074°01'0 0.0
2018-May-22 17:00N 40°45' W 074°01'0 0.0
2018-May-22 16:29N 40°45' W 074°01'0 0.0
2018-May-22 15:58N 40°45' W 074°01'0 0.0
2018-May-22 15:30N 40°45' W 074°01'0 0.0
2018-May-22 14:53N 40°45' W 074°01'0 0.0
2018-May-22 14:08N 40°45' W 074°01'0 0.0
2018-May-22 13:52N 40°45' W 074°01'0 0.0
2018-May-22 13:23N 40°45' W 074°01'0 0.0
2018-May-22 12:56N 40°45' W 074°01'0 0.0
2018-May-22 12:30N 40°45' W 074°01'0 0.0
2018-May-22 11:57N 40°45' W 074°01'0 0.0
2018-May-22 11:30N 40°45' W 074°01'0 0.0
2018-May-22 11:00N 40°45' W 074°01'0 0.0
2018-May-22 10:12N 40°45' W 074°01'0 0.0
2018-May-22 09:44N 40°45' W 074°01'0 0.0
2018-May-22 09:28N 40°45' W 074°01'0 0.0
2018-May-22 09:00N 40°45' W 074°01'0 0.0
2018-May-22 08:29N 40°45' W 074°01'0 0.0
2018-May-22 06:04N 40°45' W 074°01'0 0.0
2018-May-22 05:52N 40°45' W 074°01'0 0.0
2018-May-22 05:29N 40°45' W 074°01'0 0.0
2018-May-22 04:53N 40°45' W 074°01'0 0.0
2018-May-22 03:23N 40°45' W 074°01'0 0.0
2018-May-22 02:57N 40°45' W 074°01'0 0.0
2018-May-22 02:21N 40°45' W 074°01'0 0.0
2018-May-22 01:59N 40°45' W 074°01'0 0.0
2018-May-22 01:24N 40°45' W 074°01'0 0.0
2018-May-22 00:59N 40°45' W 074°01'0 0.0
2018-May-22 00:27N 40°45' W 074°01'0 0.0
2018-May-21 23:56N 40°45' W 074°01'0 0.0
2018-May-21 23:30N 40°45' W 074°01'0 0.0
2018-May-21 23:00N 40°45' W 074°01'0 0.0
2018-May-21 22:29N 40°45' W 074°01'0 0.0
2018-May-21 22:00N 40°45' W 074°01'0 0.0
2018-May-21 21:29N 40°45' W 074°01'0 0.0
2018-May-21 21:00N 40°45' W 074°01'0 0.0
2018-May-21 20:29N 40°45' W 074°01'0 0.0
2018-May-21 20:00N 40°45' W 074°01'0 0.0
2018-May-21 19:30N 40°45' W 074°01'0 0.0
2018-May-21 18:57N 40°45' W 074°01'0 0.0
2018-May-21 18:04N 40°45' W 074°01'0 0.0
2018-May-21 17:40N 40°45' W 074°01'0 0.0
2018-May-21 17:28N 40°45' W 074°01'0 0.0
2018-May-21 16:55N 40°45' W 074°01'0 0.0
2018-May-21 16:08N 40°45' W 074°01'0 0.0
2018-May-21 15:42N 40°45' W 074°01'0 0.0
2018-May-21 15:15N 40°45' W 074°01'0 0.0
2018-May-21 15:00N 40°45' W 074°01'0 0.0
2018-May-21 13:59N 40°45' W 074°01'0 0.0
2018-May-21 13:26N 40°45' W 074°01'0 0.0
2018-May-21 13:00N 40°45' W 074°01'0 0.0
2018-May-21 12:25N 40°45' W 074°01'0 0.0
2018-May-21 12:00N 40°45' W 074°01'0 0.0
2018-May-21 11:21N 40°45' W 074°01'0 0.0
2018-May-21 10:57N 40°45' W 074°01'0 0.0
2018-May-21 10:30N 40°45' W 074°01'0 0.0
2018-May-21 09:58N 40°45' W 074°01'0 0.0
2018-May-21 09:27N 40°45' W 074°01'0 0.0
2018-May-21 09:00N 40°45' W 074°01'0 0.0
2018-May-21 08:29N 40°45' W 074°01'0 0.0
2018-May-21 00:01N 40°45' W 074°01'0 0.0
2018-May-21 00:00N 40°45' W 074°01'0 0.0
2018-May-20 23:19N 40°45' W 074°01'0 0.0
2018-May-20 23:00N 40°45' W 074°01'0 0.0
2018-May-20 22:18N 40°45' W 074°01'0 0.0
2018-May-20 22:00N 40°45' W 074°01'0 0.0
2018-May-20 21:23N 40°45' W 074°01'0 0.0
2018-May-20 21:00N 40°45' W 074°01'0 0.0
2018-May-20 20:28N 40°45' W 074°01'0 0.0
2018-May-20 20:00N 40°45' W 074°01'0 0.0
2018-May-20 19:18N 40°45' W 074°01'0 0.0
2018-May-20 18:28N 40°45' W 074°01'0 0.0
2018-May-20 18:00N 40°45' W 074°01'0 0.0
2018-May-20 14:21N 40°45' W 074°01'0 0.0
2018-May-20 13:57N 40°45' W 074°01'0 0.0
2018-May-20 13:28N 40°45' W 074°01'0 0.0
2018-May-20 12:59N 40°45' W 074°01'0 0.0
2018-May-20 11:16N 40°45' W 074°01'0 0.0
2018-May-20 11:00N 40°45' W 074°01'0 0.0
2018-May-20 10:16N 40°45' W 074°01'0 0.0
2018-May-20 09:46N 40°45' W 074°01'0 0.0
2018-May-20 09:10N 40°45' W 074°01'0 0.0
2018-May-20 09:00N 40°45' W 074°01'0 0.0
2018-May-20 08:25N 40°45' W 074°01'0 0.0
2018-May-20 08:00N 40°45' W 074°01'0 0.0
2018-May-20 07:30N 40°45' W 074°01'0 0.0
2018-May-20 06:58N 40°45' W 074°01'0 0.0
2018-May-20 06:30N 40°45' W 074°01'0 0.0
2018-May-20 01:38N 40°45' W 074°01'0 0.0
2018-May-20 01:28N 40°45' W 074°01'0 0.0
2018-May-20 00:44N 40°45' W 074°01'0 0.0
2018-May-20 00:20N 40°45' W 074°01'0 0.0
2018-May-20 00:00N 40°45' W 074°01'0 0.0
2018-May-19 23:29N 40°45' W 074°01'0 0.0
2018-May-19 23:00N 40°45' W 074°01'0 0.0
2018-May-19 22:23N 40°45' W 074°01'0 0.0
2018-May-19 22:00N 40°45' W 074°01'0 0.0
2018-May-19 21:29N 40°45' W 074°01'0 0.0
2018-May-19 21:00N 40°45' W 074°01'0 0.0
2018-May-19 20:29N 40°45' W 074°01'0 0.0
2018-May-19 19:58N 40°45' W 074°01'0 0.0
2018-May-19 19:25N 40°45' W 074°01'0 0.0
2018-May-19 19:00N 40°45' W 074°01'0 0.0
2018-May-19 18:28N 40°45' W 074°01'0 0.0
2018-May-19 17:51N 40°45' W 074°01'0 0.0
2018-May-19 16:20N 40°45' W 074°01'0 0.0
2018-May-19 14:19N 40°45' W 074°01'0 0.0
2018-May-19 10:40N 40°45' W 074°01'0 0.0
2018-May-19 10:30N 40°45' W 074°01'0 0.0
2018-May-19 09:55N 40°45' W 074°01'0 0.0
2018-May-19 09:30N 40°45' W 074°01'0 0.0
2018-May-19 08:57N 40°45' W 074°01'0 0.0
2018-May-19 08:30N 40°45' W 074°01'0 0.0
2018-May-19 07:54N 40°45' W 074°01'0 0.0
2018-May-19 07:29N 40°45' W 074°01'0 0.0
2018-May-19 07:00N 40°45' W 074°01'0 0.0
2018-May-19 06:28N 40°45' W 074°01'0 0.0
2018-May-18 21:20N 40°45' W 074°01'0 0.0
2018-May-18 20:50N 40°45' W 074°01'0 0.0
2018-May-18 20:26N 40°45' W 074°01'0 0.0
2018-May-18 19:46N 40°45' W 074°01'0 0.0
2018-May-18 19:20N 40°45' W 074°01'0 0.0
2018-May-18 18:58N 40°45' W 074°01'  
Track history (hours):
 
Tides and Currents Weather Stations Pressure Air Temp Water Temp Dewpoint Dewpoint Depression Visibility Wind Speed Wind Dir Waves Ship Positions

Imagine...

Last reported at 2018-May-28 18:39 UTC. Time now 2018-Jun-22 17:10 UTC.
Position N 41°10' W 072°17'.
Warning: this ship's position is 24 days out of date.

Length 50 m; draft 2.6 m.

Type: Pleasure craft. MMSI: 319018500.

Date/timePositionNaut miles runAvg speedWind from/ knotsBaromVisibWave heightAir tempDewpointWater temp
2018-May-28 18:39N 41°10' W 072°17'216.8
2018-May-28 18:30N 41°10' W 072°20'816.0
2018-May-28 18:00N 41°08' W 072°31'815.3
2018-May-28 17:30N 41°06' W 072°40'6112.8
2018-May-28 12:41N 40°46' W 073°57'314.9
2018-May-28 12:30N 40°43' W 073°58'2 0.1
2018-May-27 19:33N 40°45' W 074°01'0 2.0
2018-May-27 19:30N 40°45' W 074°01'2 3.0
2018-May-27 18:48N 40°47' W 073°60'1 4.6
2018-May-27 18:30N 40°46' W 074°01'2 4.7
2018-May-27 18:00N 40°43' W 074°01'2 4.7
2018-May-27 17:30N 40°41' W 074°02'4 7.0
2018-May-27 17:00N 40°45' W 074°01'0 0.0
2018-May-27 07:38N 40°45' W 074°01'0 0.0
2018-May-27 04:47N 40°45' W 074°01'0 0.0
2018-May-27 04:29N 40°45' W 074°01'0 0.0
2018-May-27 04:00N 40°45' W 074°01'0 0.0
2018-May-27 03:22N 40°45' W 074°01'0 0.0
2018-May-27 03:00N 40°45' W 074°01'0 0.0
2018-May-27 02:30N 40°45' W 074°01'0 0.0
2018-May-27 00:42N 40°45' W 074°01'0 0.0
2018-May-26 19:43N 40°45' W 074°01'0 0.0
2018-May-26 19:25N 40°45' W 074°01'0 0.0
2018-May-26 18:01N 40°45' W 074°01'0 0.0
2018-May-26 17:49N 40°45' W 074°01'0 0.0
2018-May-26 17:23N 40°45' W 074°01'0 0.0
2018-May-26 16:58N 40°45' W 074°01'0 0.0
2018-May-26 16:26N 40°45' W 074°01'0 0.0
2018-May-26 15:59N 40°45' W 074°01'0 0.0
2018-May-26 15:30N 40°45' W 074°01'0 0.0
2018-May-26 15:00N 40°45' W 074°01'0 0.0
2018-May-26 14:27N 40°45' W 074°01'0 0.0
2018-May-26 13:59N 40°45' W 074°01'0 0.0
2018-May-26 10:30N 40°45' W 074°01'0 0.0
2018-May-26 09:31N 40°45' W 074°01'0 0.0
2018-May-26 09:12N 40°45' W 074°01'0 0.0
2018-May-26 08:55N 40°45' W 074°01'0 0.0
2018-May-26 08:18N 40°45' W 074°01'0 0.0
2018-May-26 07:59N 40°45' W 074°01'0 0.0
2018-May-26 07:30N 40°45' W 074°01'0 0.0
2018-May-26 07:00N 40°45' W 074°01'0 0.0
2018-May-26 06:21N 40°45' W 074°01'0 0.0
2018-May-26 02:18N 40°45' W 074°01'0 0.0
2018-May-26 01:58N 40°45' W 074°01'0 0.0
2018-May-26 01:29N 40°45' W 074°01'0 0.0
2018-May-26 00:59N 40°45' W 074°01'0 0.0
2018-May-26 00:27N 40°45' W 074°01'0 0.0
2018-May-25 21:33N 40°45' W 074°01'0 0.1
2018-May-25 21:29N 40°45' W 074°01'0 0.0
2018-May-25 20:29N 40°45' W 074°01'0 0.0
2018-May-25 19:22N 40°45' W 074°01'0 0.0
2018-May-25 18:57N 40°45' W 074°01'0 0.0
2018-May-25 18:05N 40°45' W 074°01'0 0.0
2018-May-25 17:56N 40°45' W 074°01'0 0.0
2018-May-25 17:27N 40°45' W 074°01'0 0.0
2018-May-25 16:58N 40°45' W 074°01'0 0.0
2018-May-25 16:26N 40°45' W 074°01'0 0.0
2018-May-25 16:00N 40°45' W 074°01'0 0.0
2018-May-25 15:23N 40°45' W 074°01'0 0.0
2018-May-25 14:58N 40°45' W 074°01'0 0.0
2018-May-25 14:29N 40°45' W 074°01'0 0.0
2018-May-25 12:08N 40°45' W 074°01'0 0.0
2018-May-25 11:56N 40°45' W 074°01'0 0.0
2018-May-25 11:30N 40°45' W 074°01'0 0.0
2018-May-25 11:00N 40°45' W 074°01'0 0.0
2018-May-25 10:24N 40°45' W 074°01'0 0.0
2018-May-25 09:53N 40°45' W 074°01'0 0.0
2018-May-25 04:40N 40°45' W 074°01'0 0.0
2018-May-25 04:21N 40°45' W 074°01'0 0.0
2018-May-25 03:47N 40°45' W 074°01'0 0.0
2018-May-25 00:58N 40°45' W 074°01'0 0.0
2018-May-24 20:39N 40°45' W 074°01'0 0.0
2018-May-24 20:24N 40°45' W 074°01'0 0.0
2018-May-24 19:57N 40°45' W 074°01'0 0.0
2018-May-24 19:29N 40°45' W 074°01'0 0.0
2018-May-24 17:33N 40°45' W 074°01'0 0.0
2018-May-24 15:44N 40°45' W 074°01'0 0.0
2018-May-24 15:29N 40°45' W 074°01'0 0.0
2018-May-24 14:53N 40°45' W 074°01'0 0.0
2018-May-24 14:28N 40°45' W 074°01'0 0.0
2018-May-24 14:00N 40°45' W 074°01'0 0.0
2018-May-24 05:57N 40°45' W 074°01'0 0.0
2018-May-24 05:25N 40°45' W 074°01'0 0.0
2018-May-24 04:46N 40°45' W 074°01'0 0.0
2018-May-23 23:46N 40°45' W 074°01'0 0.0
2018-May-23 23:18N 40°45' W 074°01'0 0.0
2018-May-23 19:26N 40°45' W 074°01'0 0.0
2018-May-23 19:00N 40°45' W 074°01'0 0.0
2018-May-23 18:12N 40°45' W 074°01'0 0.0
2018-May-23 17:59N 40°45' W 074°01'0 0.0
2018-May-23 17:12N 40°45' W 074°01'0 0.0
2018-May-23 16:59N 40°45' W 074°01'0 0.0
2018-May-23 16:25N 40°45' W 074°01'0 0.0
2018-May-23 15:59N 40°45' W 074°01'0 0.0
2018-May-23 15:30N 40°45' W 074°01'0 0.0
2018-May-23 14:47N 40°45' W 074°01'0 0.0
2018-May-23 14:14N 40°45' W 074°01'0 0.0
2018-May-23 14:00N 40°45' W 074°01'0 0.0
2018-May-23 13:30N 40°45' W 074°01'0 0.0
2018-May-23 13:00N 40°45' W 074°01'0 0.0
2018-May-23 12:28N 40°45' W 074°01'0 0.0
2018-May-23 11:49N 40°45' W 074°01'0 0.0
2018-May-23 11:30N 40°45' W 074°01'0 0.0
2018-May-23 10:59N 40°45' W 074°01'0 0.0
2018-May-23 10:30N 40°45' W 074°01'0 0.0
2018-May-23 10:00N 40°45' W 074°01'0 0.0
2018-May-23 08:45N 40°45' W 074°01'0 0.0
2018-May-23 04:16N 40°45' W 074°01'0 0.0
2018-May-23 00:44N 40°45' W 074°01'0 0.0
2018-May-23 00:18N 40°45' W 074°01'0 0.0
2018-May-22 23:58N 40°45' W 074°01'0 0.0
2018-May-22 23:28N 40°45' W 074°01'0 0.0
2018-May-22 23:00N 40°45' W 074°01'0 0.0
2018-May-22 22:29N 40°45' W 074°01'0 0.0
2018-May-22 22:00N 40°45' W 074°01'0 0.0
2018-May-22 21:05N 40°45' W 074°01'0 0.0
2018-May-22 20:53N 40°45' W 074°01'0 0.0
2018-May-22 20:28N 40°45' W 074°01'0 0.0
2018-May-22 19:51N 40°45' W 074°01'0 0.0
2018-May-22 19:21N 40°45' W 074°01'0 0.0
2018-May-22 18:56N 40°45' W 074°01'0 0.0
2018-May-22 17:59N 40°45' W 074°01'0 0.0
2018-May-22 17:30N 40°45' W 074°01'0 0.0
2018-May-22 17:00N 40°45' W 074°01'0 0.0
2018-May-22 16:29N 40°45' W 074°01'0 0.0
2018-May-22 15:58N 40°45' W 074°01'0 0.0
2018-May-22 15:30N 40°45' W 074°01'0 0.0
2018-May-22 14:53N 40°45' W 074°01'0 0.0
2018-May-22 14:08N 40°45' W 074°01'0 0.0
2018-May-22 13:52N 40°45' W 074°01'0 0.0
2018-May-22 13:23N 40°45' W 074°01'0 0.0
2018-May-22 12:56N 40°45' W 074°01'0 0.0
2018-May-22 12:30N 40°45' W 074°01'0 0.0
2018-May-22 11:57N 40°45' W 074°01'0 0.0
2018-May-22 11:30N 40°45' W 074°01'0 0.0
2018-May-22 11:00N 40°45' W 074°01'0 0.0
2018-May-22 10:12N 40°45' W 074°01'0 0.0
2018-May-22 09:44N 40°45' W 074°01'0 0.0
2018-May-22 09:28N 40°45' W 074°01'0 0.0
2018-May-22 09:00N 40°45' W 074°01'0 0.0
2018-May-22 08:29N 40°45' W 074°01'0 0.0
2018-May-22 06:04N 40°45' W 074°01'0 0.0
2018-May-22 05:52N 40°45' W 074°01'0 0.0
2018-May-22 05:29N 40°45' W 074°01'0 0.0
2018-May-22 04:53N 40°45' W 074°01'0 0.0
2018-May-22 03:23N 40°45' W 074°01'0 0.0
2018-May-22 02:57N 40°45' W 074°01'0 0.0
2018-May-22 02:21N 40°45' W 074°01'0 0.0
2018-May-22 01:59N 40°45' W 074°01'0 0.0
2018-May-22 01:24N 40°45' W 074°01'0 0.0
2018-May-22 00:59N 40°45' W 074°01'0 0.0
2018-May-22 00:27N 40°45' W 074°01'0 0.0
2018-May-21 23:56N 40°45' W 074°01'0 0.0
2018-May-21 23:30N 40°45' W 074°01'0 0.0
2018-May-21 23:00N 40°45' W 074°01'0 0.0
2018-May-21 22:29N 40°45' W 074°01'0 0.0
2018-May-21 22:00N 40°45' W 074°01'0 0.0
2018-May-21 21:29N 40°45' W 074°01'0 0.0
2018-May-21 21:00N 40°45' W 074°01'0 0.0
2018-May-21 20:29N 40°45' W 074°01'0 0.0
2018-May-21 20:00N 40°45' W 074°01'0 0.0
2018-May-21 19:30N 40°45' W 074°01'0 0.0
2018-May-21 18:57N 40°45' W 074°01'0 0.0
2018-May-21 18:04N 40°45' W 074°01'0 0.0
2018-May-21 17:40N 40°45' W 074°01'0 0.0
2018-May-21 17:28N 40°45' W 074°01'0 0.0
2018-May-21 16:55N 40°45' W 074°01'0 0.0
2018-May-21 16:08N 40°45' W 074°01'0 0.0
2018-May-21 15:42N 40°45' W 074°01'0 0.0
2018-May-21 15:15N 40°45' W 074°01'0 0.0
2018-May-21 15:00N 40°45' W 074°01'0 0.0
2018-May-21 13:59N 40°45' W 074°01'0 0.0
2018-May-21 13:26N 40°45' W 074°01'0 0.0
2018-May-21 13:00N 40°45' W 074°01'0 0.0
2018-May-21 12:25N 40°45' W 074°01'0 0.0
2018-May-21 12:00N 40°45' W 074°01'0 0.0
2018-May-21 11:21N 40°45' W 074°01'0 0.0
2018-May-21 10:57N 40°45' W 074°01'0 0.0
2018-May-21 10:30N 40°45' W 074°01'0 0.0
2018-May-21 09:58N 40°45' W 074°01'0 0.0
2018-May-21 09:27N 40°45' W 074°01'0 0.0
2018-May-21 09:00N 40°45' W 074°01'0 0.0
2018-May-21 08:29N 40°45' W 074°01'0 0.0
2018-May-21 00:01N 40°45' W 074°01'0 0.0
2018-May-21 00:00N 40°45' W 074°01'0 0.0
2018-May-20 23:19N 40°45' W 074°01'0 0.0
2018-May-20 23:00N 40°45' W 074°01'0 0.0
2018-May-20 22:18N 40°45' W 074°01'0 0.0
2018-May-20 22:00N 40°45' W 074°01'0 0.0
2018-May-20 21:23N 40°45' W 074°01'0 0.0
2018-May-20 21:00N 40°45' W 074°01'0 0.0
2018-May-20 20:28N 40°45' W 074°01'0 0.0
2018-May-20 20:00N 40°45' W 074°01'0 0.0
2018-May-20 19:18N 40°45' W 074°01'0 0.0
2018-May-20 18:28N 40°45' W 074°01'0 0.0
2018-May-20 18:00N 40°45' W 074°01'0 0.0
2018-May-20 14:21N 40°45' W 074°01'0 0.0
2018-May-20 13:57N 40°45' W 074°01'0 0.0
2018-May-20 13:28N 40°45' W 074°01'0 0.0
2018-May-20 12:59N 40°45' W 074°01'0 0.0
2018-May-20 11:16N 40°45' W 074°01'0 0.0
2018-May-20 11:00N 40°45' W 074°01'0 0.0
2018-May-20 10:16N 40°45' W 074°01'0 0.0
2018-May-20 09:46N 40°45' W 074°01'0 0.0
2018-May-20 09:10N 40°45' W 074°01'0 0.0
2018-May-20 09:00N 40°45' W 074°01'0 0.0
2018-May-20 08:25N 40°45' W 074°01'0 0.0
2018-May-20 08:00N 40°45' W 074°01'0 0.0
2018-May-20 07:30N 40°45' W 074°01'0 0.0
2018-May-20 06:58N 40°45' W 074°01'0 0.0
2018-May-20 06:30N 40°45' W 074°01'0 0.0
2018-May-20 01:38N 40°45' W 074°01'0 0.0
2018-May-20 01:28N 40°45' W 074°01'0 0.0
2018-May-20 00:44N 40°45' W 074°01'0 0.0
2018-May-20 00:20N 40°45' W 074°01'0 0.0
2018-May-20 00:00N 40°45' W 074°01'0 0.0
2018-May-19 23:29N 40°45' W 074°01'0 0.0
2018-May-19 23:00N 40°45' W 074°01'0 0.0
2018-May-19 22:23N 40°45' W 074°01'0 0.0
2018-May-19 22:00N 40°45' W 074°01'0 0.0
2018-May-19 21:29N 40°45' W 074°01'0 0.0
2018-May-19 21:00N 40°45' W 074°01'0 0.0
2018-May-19 20:29N 40°45' W 074°01'0 0.0
2018-May-19 19:58N 40°45' W 074°01'0 0.0
2018-May-19 19:25N 40°45' W 074°01'0 0.0
2018-May-19 19:00N 40°45' W 074°01'0 0.0
2018-May-19 18:28N 40°45' W 074°01'0 0.0
2018-May-19 17:51N 40°45' W 074°01'0 0.0
2018-May-19 16:20N 40°45' W 074°01'0 0.0
2018-May-19 14:19N 40°45' W 074°01'0 0.0
2018-May-19 10:40N 40°45' W 074°01'0 0.0
2018-May-19 10:30N 40°45' W 074°01'0 0.0
2018-May-19 09:55N 40°45' W 074°01'0 0.0
2018-May-19 09:30N 40°45' W 074°01'0 0.0
2018-May-19 08:57N 40°45' W 074°01'0 0.0
2018-May-19 08:30N 40°45' W 074°01'0 0.0
2018-May-19 07:54N 40°45' W 074°01'0 0.0
2018-May-19 07:29N 40°45' W 074°01'0 0.0
2018-May-19 07:00N 40°45' W 074°01'0 0.0
2018-May-19 06:28N 40°45' W 074°01'0 0.0
2018-May-18 21:20N 40°45' W 074°01'0 0.0
2018-May-18 20:50N 40°45' W 074°01'0 0.0
2018-May-18 20:26N 40°45' W 074°01'0 0.0
2018-May-18 19:46N 40°45' W 074°01'0 0.0
2018-May-18 19:20N 40°45' W 074°01'0 0.0
2018-May-18 18:58N 40°45' W 074°01'  

Dump ship's entire track history